createdAt,value
2022-08-22T00:06:26.047Z,45.15
2022-08-22T00:16:32.953Z,45.60
2022-08-22T00:26:43.393Z,45.54
2022-08-22T00:36:51.402Z,45.21
2022-08-22T00:46:57.978Z,45.06
2022-08-22T00:57:06.776Z,44.91
2022-08-22T01:07:13.177Z,44.86
2022-08-22T01:17:19.804Z,44.81
2022-08-22T01:27:26.053Z,45.04
2022-08-22T01:37:32.691Z,44.94
2022-08-22T01:47:38.683Z,44.87
2022-08-22T01:57:44.769Z,45.00
2022-08-22T02:07:50.903Z,44.81
2022-08-22T02:17:56.919Z,44.78
2022-08-22T02:28:07.704Z,44.89
2022-08-22T02:38:14.215Z,44.92
2022-08-22T02:48:21.079Z,44.90
2022-08-22T02:58:32.691Z,45.15
2022-08-22T03:08:47.352Z,44.93
2022-08-22T03:18:50.893Z,45.32
2022-08-22T03:28:59.877Z,45.09
2022-08-22T03:39:08.198Z,45.06
2022-08-22T03:49:18.079Z,45.31
2022-08-22T03:59:24.519Z,45.62
2022-08-22T04:09:30.281Z,45.11
2022-08-22T04:19:37.479Z,45.12
2022-08-22T04:29:43.650Z,45.47
2022-08-22T04:39:49.668Z,45.77
2022-08-22T04:49:56.660Z,45.25
2022-08-22T05:00:03.515Z,45.46
2022-08-22T05:10:12.310Z,44.83
2022-08-22T05:20:18.973Z,45.07
2022-08-22T05:30:25.784Z,45.28
2022-08-22T05:40:31.995Z,45.30
2022-08-22T05:50:38.119Z,45.46
2022-08-22T06:00:44.879Z,45.27
2022-08-22T06:10:51.595Z,45.31
2022-08-22T06:20:57.970Z,45.73
2022-08-22T06:31:04.130Z,45.63
2022-08-22T06:41:11.047Z,46.06
2022-08-22T06:51:17.335Z,46.11
2022-08-22T07:01:24.291Z,46.09
2022-08-22T07:11:31.065Z,46.22
2022-08-22T07:21:37.981Z,46.67
2022-08-22T07:31:45.825Z,46.11
2022-08-22T07:41:52.772Z,46.25
2022-08-22T07:51:59.750Z,45.88
2022-08-22T08:02:07.001Z,45.50
2022-08-22T08:12:14.791Z,45.39
2022-08-22T08:22:21.245Z,45.10
2022-08-22T08:32:28.086Z,44.94
2022-08-22T08:42:34.354Z,44.81
2022-08-22T08:52:40.643Z,44.84
2022-08-22T09:02:47.050Z,44.90
2022-08-22T09:13:11.451Z,44.96
2022-08-22T09:23:10.831Z,44.98
2022-08-22T09:33:17.765Z,44.80
2022-08-22T09:43:24.396Z,44.98
2022-08-22T09:54:50.088Z,45.04
2022-08-22T10:04:56.382Z,46.34
2022-08-22T10:15:04.390Z,46.07
2022-08-22T10:25:13.327Z,46.50
2022-08-22T10:35:19.689Z,46.22
2022-08-22T10:45:35.627Z,46.26
2022-08-22T10:55:37.399Z,45.09
2022-08-22T11:05:44.748Z,44.94
2022-08-22T11:15:56.083Z,44.92
2022-08-22T11:26:05.158Z,45.67
2022-08-22T11:36:11.764Z,45.20
2022-08-22T11:46:19.929Z,46.30
2022-08-22T11:56:26.662Z,45.91
2022-08-22T12:06:34.766Z,45.29
2022-08-22T12:16:41.140Z,45.25
2022-08-22T12:26:51.741Z,46.21
2022-08-22T12:36:58.227Z,45.79
2022-08-22T12:48:24.016Z,45.21
2022-08-22T12:58:33.539Z,45.49
2022-08-22T13:08:41.514Z,45.60
2022-08-22T13:18:48.123Z,46.67
2022-08-22T13:29:22.064Z,46.04
2022-08-22T13:39:10.971Z,46.28
2022-08-22T13:49:18.760Z,46.55
2022-08-22T13:59:49.479Z,46.90
2022-08-22T14:09:40.830Z,45.48
2022-08-22T14:19:53.030Z,46.39
2022-08-22T14:29:59.222Z,45.85
2022-08-22T14:40:06.274Z,45.77
2022-08-22T14:50:13.210Z,45.11
2022-08-22T15:00:23.771Z,46.40
2022-08-22T15:10:37.352Z,45.91
2022-08-22T15:20:49.339Z,46.17
2022-08-22T15:30:57.908Z,46.05
2022-08-22T15:41:04.435Z,45.27
2022-08-22T15:51:12.469Z,45.76
2022-08-22T16:01:20.405Z,45.33
2022-08-22T16:11:32.760Z,45.70
2022-08-22T16:21:40.307Z,47.00
2022-08-22T16:31:47.083Z,46.21
2022-08-22T16:41:53.968Z,49.34
2022-08-22T16:52:00.763Z,48.07
2022-08-22T17:02:08.011Z,47.99
2022-08-22T17:12:14.405Z,45.89
2022-08-22T17:22:21.248Z,47.46
2022-08-22T17:32:30.947Z,47.38
2022-08-22T17:42:37.665Z,45.29
2022-08-22T17:52:44.579Z,45.27
2022-08-22T18:02:57.061Z,45.46
2022-08-22T18:13:07.082Z,44.40
2022-08-22T18:23:21.711Z,44.25
2022-08-22T18:33:25.541Z,44.19
2022-08-22T18:43:33.070Z,44.32
2022-08-22T18:53:39.970Z,44.44
2022-08-22T19:03:46.489Z,44.34
2022-08-22T19:13:52.766Z,44.54
2022-08-22T19:23:59.610Z,44.79
2022-08-22T19:34:06.475Z,45.00
2022-08-22T19:44:13.428Z,44.82
2022-08-22T19:54:20.358Z,44.85
2022-08-22T20:04:27.383Z,44.94
2022-08-22T20:14:34.218Z,44.97
2022-08-22T20:24:41.075Z,44.83
2022-08-22T20:34:47.279Z,44.80
2022-08-22T20:44:53.790Z,44.55
2022-08-22T20:55:00.221Z,44.65
2022-08-22T21:05:06.280Z,44.53
2022-08-22T21:15:12.960Z,44.60
2022-08-22T21:25:19.227Z,45.05
2022-08-22T21:35:25.196Z,45.03
2022-08-22T21:45:31.374Z,45.11
2022-08-22T21:55:37.624Z,45.44
2022-08-22T22:05:43.556Z,45.44
2022-08-22T22:15:49.843Z,45.67
2022-08-22T22:25:56.077Z,45.99
2022-08-22T22:36:02.726Z,46.33
2022-08-22T22:46:09.187Z,46.24
2022-08-22T22:56:16.081Z,46.42
2022-08-22T23:06:22.934Z,46.54
2022-08-22T23:16:32.030Z,46.68
2022-08-22T23:26:41.341Z,46.82
2022-08-22T23:36:47.507Z,47.06
2022-08-22T23:46:54.337Z,46.94
2022-08-22T23:57:00.855Z,47.05
